createdAt,value
2023-04-14T00:01:00.550Z,20.14
2023-04-14T00:03:30.312Z,20.30
2023-04-14T00:05:59.736Z,19.90
2023-04-14T00:08:29.179Z,19.04
2023-04-14T00:10:58.203Z,20.28
2023-04-14T00:13:28.346Z,20.18
2023-04-14T00:16:02.502Z,19.82
2023-04-14T00:18:35.415Z,20.26
2023-04-14T00:21:05.536Z,20.19
2023-04-14T00:23:36.528Z,20.28
2023-04-14T00:26:07.131Z,20.26
2023-04-14T00:28:35.675Z,20.23
2023-04-14T00:31:06.209Z,20.26
2023-04-14T00:33:36.280Z,20.10
2023-04-14T00:36:07.856Z,20.11
2023-04-14T00:38:36.326Z,19.78
2023-04-14T00:41:04.604Z,20.17
2023-04-14T00:43:36.200Z,20.05
2023-04-14T00:46:08.178Z,19.76
2023-04-14T00:48:39.560Z,20.15
2023-04-14T00:51:09.615Z,20.10
2023-04-14T00:53:43.496Z,20.17
2023-04-14T00:56:13.047Z,20.15
2023-04-14T00:58:43.518Z,20.13
2023-04-14T01:01:16.904Z,19.95
2023-04-14T01:03:45.821Z,20.11
2023-04-14T01:06:14.332Z,19.87
2023-04-14T01:08:44.487Z,19.97
2023-04-14T01:11:28.201Z,20.06
2023-04-14T01:14:27.583Z,20.07
2023-04-14T01:17:06.421Z,19.90
2023-04-14T01:19:56.188Z,20.03
2023-04-14T01:22:32.143Z,19.84
2023-04-14T01:25:10.496Z,20.03
2023-04-14T01:28:32.170Z,20.02
2023-04-14T01:31:18.199Z,19.93
2023-04-14T01:33:56.459Z,20.01
2023-04-14T01:36:32.115Z,19.63
2023-04-14T01:39:06.168Z,19.90
2023-04-14T01:41:39.885Z,20.01
2023-04-14T01:44:12.210Z,19.83
2023-04-14T01:46:43.162Z,19.91
2023-04-14T01:49:15.265Z,19.79
2023-04-14T01:51:46.151Z,19.70
2023-04-14T01:54:18.295Z,19.88
2023-04-14T01:56:50.221Z,19.63
2023-04-14T01:59:19.518Z,19.65
2023-04-14T02:01:50.590Z,18.49
2023-04-14T02:04:26.578Z,19.94
2023-04-14T02:06:59.256Z,18.92
2023-04-14T02:09:31.648Z,19.90
2023-04-14T02:12:03.273Z,19.77
2023-04-14T02:14:33.422Z,19.81
2023-04-14T02:17:03.321Z,19.82
2023-04-14T02:19:37.160Z,19.17
2023-04-14T02:22:08.306Z,19.75
2023-04-14T02:24:37.446Z,19.62
2023-04-14T02:27:18.499Z,19.82
2023-04-14T02:29:54.412Z,19.61
2023-04-14T02:32:29.135Z,19.81
2023-04-14T02:35:06.720Z,19.71
2023-04-14T02:37:39.223Z,19.74
2023-04-14T02:40:15.063Z,19.73
2023-04-14T02:42:54.095Z,19.61
2023-04-14T02:45:30.240Z,19.71
2023-04-14T02:48:06.270Z,19.72
2023-04-14T02:50:36.387Z,19.37
2023-04-14T02:53:18.894Z,19.69
2023-04-14T02:55:51.916Z,19.53
2023-04-14T02:58:22.536Z,19.41
2023-04-14T03:01:25.425Z,19.68
2023-04-14T03:04:12.497Z,19.52
2023-04-14T03:06:44.472Z,18.90
2023-04-14T03:09:20.508Z,19.60
2023-04-14T03:11:50.985Z,19.61
2023-04-14T03:14:24.160Z,19.25
2023-04-14T03:16:54.714Z,19.46
2023-04-14T03:19:29.335Z,19.43
2023-04-14T03:22:02.613Z,19.19
2023-04-14T03:24:35.256Z,19.47
2023-04-14T03:27:16.495Z,19.39
2023-04-14T03:29:52.978Z,19.46
2023-04-14T03:32:28.370Z,19.18
2023-04-14T03:34:59.208Z,19.19
2023-04-14T03:37:37.537Z,19.38
2023-04-14T03:40:14.946Z,19.35
2023-04-14T03:42:52.211Z,19.43
2023-04-14T03:45:23.438Z,19.07
2023-04-14T03:47:58.084Z,19.12
2023-04-14T03:50:32.985Z,19.21
2023-04-14T03:53:06.102Z,19.23
2023-04-14T03:55:40.808Z,19.18
2023-04-14T03:58:14.190Z,19.25
2023-04-14T04:00:46.448Z,19.19
2023-04-14T04:03:16.597Z,19.29
2023-04-14T04:05:48.559Z,18.43
2023-04-14T04:08:18.926Z,19.10
2023-04-14T04:10:48.621Z,19.34
2023-04-14T04:13:22.440Z,18.14
2023-04-14T04:15:52.831Z,19.25
2023-04-14T04:18:26.215Z,19.34
2023-04-14T04:20:59.409Z,19.05
2023-04-14T04:23:34.546Z,19.21
2023-04-14T04:26:03.997Z,19.35
2023-04-14T04:28:40.552Z,19.29
2023-04-14T04:31:11.304Z,19.34
2023-04-14T04:33:41.664Z,19.08
2023-04-14T04:36:15.517Z,19.36
2023-04-14T04:38:47.384Z,19.31
2023-04-14T04:41:25.237Z,19.39
2023-04-14T04:43:56.787Z,19.39
2023-04-14T04:46:52.275Z,19.01
2023-04-14T04:49:28.534Z,19.13
2023-04-14T04:52:04.943Z,19.39
2023-04-14T04:54:36.182Z,19.41
2023-04-14T04:57:05.872Z,19.41
2023-04-14T04:59:38.046Z,19.21
2023-04-14T05:02:08.448Z,19.18
2023-04-14T05:04:38.577Z,19.29
2023-04-14T05:07:11.217Z,19.22
2023-04-14T05:09:40.680Z,19.41
2023-04-14T05:12:11.405Z,19.10
2023-04-14T05:14:41.791Z,19.22
2023-04-14T05:17:09.518Z,19.22
2023-04-14T05:19:39.433Z,19.18
2023-04-14T05:22:09.260Z,19.09
2023-04-14T05:24:40.635Z,19.41
2023-04-14T05:27:14.619Z,19.27
2023-04-14T05:29:44.420Z,19.40
2023-04-14T05:32:14.976Z,19.43
2023-04-14T05:34:47.690Z,18.64
2023-04-14T05:37:19.521Z,19.26
2023-04-14T05:39:50.893Z,19.40
2023-04-14T05:42:18.711Z,19.37
2023-04-14T05:44:48.269Z,19.22
2023-04-14T05:47:20.943Z,19.27
2023-04-14T05:49:49.545Z,19.35
2023-04-14T05:52:18.777Z,19.50
2023-04-14T05:54:47.553Z,19.26
2023-04-14T05:57:19.456Z,19.44
2023-04-14T05:59:48.507Z,19.51
2023-04-14T06:02:20.316Z,19.47
2023-04-14T06:04:52.740Z,19.46
2023-04-14T06:07:22.095Z,19.41
2023-04-14T06:09:56.375Z,19.58
2023-04-14T06:12:25.877Z,19.14
2023-04-14T06:14:56.225Z,19.52
2023-04-14T06:17:29.372Z,19.62
2023-04-14T06:19:57.636Z,19.62
2023-04-14T06:22:31.595Z,19.64
2023-04-14T06:25:01.230Z,19.32
2023-04-14T06:27:31.368Z,19.11
2023-04-14T06:30:01.285Z,19.62
2023-04-14T06:32:30.636Z,19.36
2023-04-14T06:34:59.406Z,19.61
2023-04-14T06:37:28.862Z,19.32
2023-04-14T06:39:57.428Z,19.49
2023-04-14T06:42:27.474Z,19.62
2023-04-14T06:44:59.528Z,19.66
2023-04-14T06:47:28.451Z,19.68
2023-04-14T06:49:58.445Z,19.67
2023-04-14T06:52:26.399Z,19.40
2023-04-14T06:54:56.572Z,19.51
2023-04-14T06:57:29.252Z,19.79
2023-04-14T07:00:00.498Z,19.79
2023-04-14T07:03:34.611Z,19.78
2023-04-14T07:06:22.365Z,19.81
2023-04-14T07:08:52.539Z,19.56
2023-04-14T07:11:25.068Z,19.33
2023-04-14T07:13:55.185Z,19.84
2023-04-14T07:16:25.123Z,19.75
2023-04-14T07:18:55.956Z,19.81
2023-04-14T07:21:26.335Z,19.86
2023-04-14T07:23:55.122Z,19.87
2023-04-14T07:26:23.206Z,19.63
2023-04-14T07:28:53.053Z,19.92
2023-04-14T07:31:23.636Z,19.68
2023-04-14T07:33:54.105Z,19.98
2023-04-14T07:36:22.662Z,19.99
2023-04-14T07:38:54.424Z,20.01
2023-04-14T07:41:22.624Z,19.89
2023-04-14T07:43:51.159Z,19.98
2023-04-14T07:46:22.631Z,19.60
2023-04-14T07:48:54.720Z,19.89
2023-04-14T07:51:23.254Z,19.95
2023-04-14T07:53:54.061Z,19.76
2023-04-14T07:56:23.462Z,19.88
2023-04-14T07:58:54.055Z,19.96
2023-04-14T08:01:23.404Z,19.87
2023-04-14T08:03:54.284Z,19.88
2023-04-14T08:06:23.200Z,19.54
2023-04-14T08:08:55.182Z,19.70
2023-04-14T08:11:25.397Z,19.89
2023-04-14T08:13:54.281Z,19.96
2023-04-14T08:16:23.004Z,18.90
2023-04-14T08:18:56.518Z,19.64
2023-04-14T08:21:28.138Z,19.82
2023-04-14T08:23:58.378Z,19.47
2023-04-14T08:26:28.982Z,19.74
2023-04-14T08:29:01.466Z,19.44
2023-04-14T08:31:35.134Z,19.89
2023-04-14T08:34:06.098Z,19.88
2023-04-14T08:36:36.409Z,20.03
2023-04-14T08:39:08.247Z,19.86
2023-04-14T08:41:39.441Z,19.93
2023-04-14T08:44:10.786Z,19.78
2023-04-14T08:46:45.176Z,20.03
2023-04-14T08:49:28.974Z,19.79
2023-04-14T08:52:03.157Z,20.02
2023-04-14T08:54:32.155Z,20.02
2023-04-14T08:57:04.805Z,20.02
2023-04-14T08:59:35.027Z,19.98
2023-04-14T09:02:08.235Z,19.86
2023-04-14T09:04:38.394Z,19.90
2023-04-14T09:07:08.028Z,19.37
2023-04-14T09:09:38.006Z,19.83
2023-04-14T09:12:07.671Z,19.60
2023-04-14T09:14:41.119Z,19.61
2023-04-14T09:17:11.135Z,19.70
2023-04-14T09:20:38.138Z,19.50
2023-04-14T09:22:29.693Z,19.48
2023-04-14T09:25:00.095Z,19.63
2023-04-14T09:27:29.260Z,19.78
2023-04-14T09:30:01.449Z,19.75
2023-04-14T09:32:30.080Z,19.56
2023-04-14T09:35:00.618Z,19.80
2023-04-14T09:37:44.023Z,19.70
2023-04-14T09:40:29.264Z,19.91
2023-04-14T09:43:02.130Z,19.94
2023-04-14T09:45:46.398Z,19.96
2023-04-14T09:48:14.772Z,20.05
2023-04-14T09:51:07.697Z,19.99
2023-04-14T09:53:39.136Z,20.02
2023-04-14T09:56:12.179Z,19.73
2023-04-14T09:58:45.061Z,19.91
2023-04-14T10:01:19.272Z,19.99
2023-04-14T10:03:51.263Z,19.84
2023-04-14T10:06:25.382Z,19.82
2023-04-14T10:08:57.114Z,19.84
2023-04-14T10:11:38.154Z,19.86
2023-04-14T10:14:10.097Z,19.77
2023-04-14T10:16:39.711Z,20.09
2023-04-14T10:19:10.428Z,20.18
2023-04-14T10:21:41.129Z,20.19
2023-04-14T10:24:14.923Z,20.16
2023-04-14T10:26:50.285Z,19.98
2023-04-14T10:29:23.466Z,20.23
2023-04-14T10:31:58.940Z,20.00
2023-04-14T10:34:35.406Z,19.91
2023-04-14T10:37:19.207Z,20.00
2023-04-14T10:39:56.499Z,20.22
2023-04-14T10:42:25.368Z,20.22
2023-04-14T10:45:06.375Z,20.25
2023-04-14T10:47:38.026Z,20.27
2023-04-14T10:50:26.232Z,20.28
2023-04-14T10:53:00.094Z,20.23
2023-04-14T10:55:52.094Z,20.08
2023-04-14T10:58:31.137Z,20.19
2023-04-14T11:01:00.493Z,20.24
2023-04-14T11:03:32.746Z,20.34
2023-04-14T11:06:04.004Z,19.98
2023-04-14T11:08:37.145Z,20.00
2023-04-14T11:11:09.201Z,20.27
2023-04-14T11:13:39.311Z,20.39
2023-04-14T11:16:11.233Z,20.33
2023-04-14T11:18:46.580Z,20.47
2023-04-14T11:21:19.143Z,20.27
2023-04-14T11:23:49.435Z,20.26
2023-04-14T11:26:18.360Z,20.51
2023-04-14T11:28:49.226Z,20.23
2023-04-14T11:31:22.527Z,20.54
2023-04-14T11:33:54.177Z,20.57
2023-04-14T11:36:26.156Z,20.50
2023-04-14T11:39:01.524Z,20.48
2023-04-14T11:41:31.600Z,20.64
2023-04-14T11:43:59.764Z,20.53
2023-04-14T11:46:28.552Z,20.62
2023-04-14T11:48:58.308Z,20.64
2023-04-14T11:51:35.168Z,20.69
2023-04-14T11:54:07.200Z,20.18
2023-04-14T11:56:42.168Z,20.44
2023-04-14T11:59:13.287Z,20.69
2023-04-14T12:01:43.261Z,20.59
2023-04-14T12:04:13.560Z,20.73
2023-04-14T12:06:46.092Z,20.45
2023-04-14T12:09:15.785Z,20.64
2023-04-14T12:11:55.497Z,20.79
2023-04-14T12:14:26.188Z,20.68
2023-04-14T12:16:58.130Z,20.80
2023-04-14T12:19:30.677Z,20.83
2023-04-14T12:21:59.675Z,20.69
2023-04-14T12:24:40.592Z,20.87
2023-04-14T12:27:14.062Z,20.58
2023-04-14T12:29:48.143Z,20.85
2023-04-14T12:32:22.598Z,20.92
2023-04-14T12:35:01.761Z,20.95
2023-04-14T12:37:29.722Z,20.97
2023-04-14T12:40:01.234Z,20.67
2023-04-14T12:42:46.226Z,20.70
2023-04-14T12:45:17.696Z,20.93
2023-04-14T12:47:55.484Z,20.59
2023-04-14T12:50:30.745Z,21.05
2023-04-14T12:53:05.213Z,20.79
2023-04-14T12:55:38.194Z,20.83
2023-04-14T12:58:07.111Z,21.13
2023-04-14T13:00:38.460Z,21.13
2023-04-14T13:03:10.533Z,20.94
2023-04-14T13:05:39.338Z,21.09
2023-04-14T13:08:09.559Z,21.15
2023-04-14T13:10:37.386Z,21.10
2023-04-14T13:13:08.289Z,21.21
2023-04-14T13:16:13.470Z,21.07
2023-04-14T13:18:28.403Z,21.06
2023-04-14T13:20:59.933Z,21.09
2023-04-14T13:23:29.915Z,20.92
2023-04-14T13:25:59.418Z,21.21
2023-04-14T13:28:31.613Z,21.22
2023-04-14T13:31:01.132Z,21.05
2023-04-14T13:33:30.193Z,21.13
2023-04-14T13:36:01.136Z,21.12
2023-04-14T13:38:32.469Z,20.74
2023-04-14T13:41:04.185Z,20.81
2023-04-14T13:43:33.443Z,20.80
2023-04-14T13:46:04.294Z,20.89
2023-04-14T13:48:34.156Z,20.93
2023-04-14T13:51:02.871Z,21.09
2023-04-14T13:53:33.603Z,20.66
2023-04-14T13:56:02.607Z,20.73
2023-04-14T13:58:38.703Z,21.26
2023-04-14T14:01:14.261Z,21.03
2023-04-14T14:03:44.116Z,21.25
2023-04-14T14:06:16.112Z,20.88
2023-04-14T14:08:45.681Z,21.06
2023-04-14T14:11:15.189Z,21.14
2023-04-14T14:13:43.118Z,21.16
2023-04-14T14:18:43.497Z,20.76
2023-04-14T14:21:12.426Z,20.66
2023-04-14T14:23:43.310Z,21.23
2023-04-14T14:26:13.323Z,21.07
2023-04-14T14:28:47.153Z,21.27
2023-04-14T14:31:18.029Z,21.33
2023-04-14T14:33:48.761Z,21.33
2023-04-14T14:36:20.503Z,21.15
2023-04-14T14:38:50.157Z,21.27
2023-04-14T14:41:21.364Z,21.26
2023-04-14T14:43:51.486Z,21.24
2023-04-14T14:46:24.247Z,20.87
2023-04-14T14:48:55.187Z,21.12
2023-04-14T14:51:25.927Z,21.02
2023-04-14T14:54:04.258Z,20.99
2023-04-14T14:56:41.301Z,21.12
2023-04-14T14:59:10.408Z,20.90
2023-04-14T15:01:40.686Z,20.97
2023-04-14T15:04:13.367Z,21.06
2023-04-14T15:06:42.380Z,20.86
2023-04-14T15:09:11.460Z,21.04
2023-04-14T15:11:39.588Z,21.01
2023-04-14T15:14:09.445Z,20.65
2023-04-14T15:16:38.760Z,20.83
2023-04-14T15:19:08.466Z,20.50
2023-04-14T15:21:37.561Z,20.73
2023-04-14T15:24:06.024Z,20.98
2023-04-14T15:26:36.867Z,20.68
2023-04-14T15:29:06.642Z,21.01
2023-04-14T15:31:37.405Z,20.63
2023-04-14T15:34:09.187Z,20.74
2023-04-14T15:36:40.963Z,21.01
2023-04-14T15:39:09.418Z,20.95
2023-04-14T15:41:37.155Z,20.76
2023-04-14T15:44:04.904Z,20.93
2023-04-14T15:46:32.800Z,20.91
2023-04-14T15:49:00.511Z,20.99
2023-04-14T15:51:28.252Z,20.96
2023-04-14T15:53:56.266Z,20.93
2023-04-14T15:56:24.712Z,20.53
2023-04-14T15:58:52.653Z,21.01
2023-04-14T16:01:21.071Z,20.01
2023-04-14T16:03:51.272Z,20.81
2023-04-14T16:06:20.647Z,21.02
2023-04-14T16:08:48.484Z,20.92
2023-04-14T16:11:16.741Z,20.97
2023-04-14T16:13:45.753Z,20.69
2023-04-14T16:16:15.344Z,21.00
2023-04-14T16:18:44.216Z,20.67
2023-04-14T16:21:12.170Z,20.77
2023-04-14T16:23:41.458Z,20.83
2023-04-14T16:26:09.243Z,20.91
2023-04-14T16:28:36.959Z,20.59
2023-04-14T16:31:05.823Z,20.56
2023-04-14T16:33:35.026Z,20.94
2023-04-14T16:36:04.440Z,20.54
2023-04-14T16:38:33.182Z,20.87
2023-04-14T16:41:04.467Z,20.92
2023-04-14T16:43:33.027Z,20.91
2023-04-14T16:46:04.243Z,20.91
2023-04-14T16:48:32.815Z,20.82
2023-04-14T16:51:09.386Z,20.87
2023-04-14T16:53:39.520Z,20.78
2023-04-14T16:56:08.724Z,20.85
2023-04-14T16:58:38.296Z,20.89
2023-04-14T17:01:06.982Z,20.79
2023-04-14T17:03:35.648Z,20.65
2023-04-14T17:06:03.962Z,20.80
2023-04-14T17:08:34.055Z,20.89
2023-04-14T17:11:02.426Z,20.77
2023-04-14T17:13:30.349Z,20.79
2023-04-14T17:16:07.734Z,21.17
2023-04-14T17:18:38.320Z,21.09
2023-04-14T17:21:07.495Z,21.13
2023-04-14T17:23:37.628Z,21.03
2023-04-14T17:26:06.015Z,21.03
2023-04-14T17:28:35.146Z,21.15
2023-04-14T17:31:10.409Z,21.13
2023-04-14T17:33:43.876Z,21.25
2023-04-14T17:36:16.717Z,21.23
2023-04-14T17:38:45.928Z,21.14
2023-04-14T17:41:14.133Z,20.94
2023-04-14T17:43:41.953Z,21.24
2023-04-14T17:46:10.514Z,21.10
2023-04-14T17:48:38.676Z,21.00
2023-04-14T17:51:06.789Z,20.29
2023-04-14T17:53:34.662Z,21.22
2023-04-14T17:56:03.563Z,21.07
2023-04-14T17:58:31.265Z,20.69
2023-04-14T18:00:59.443Z,20.91
2023-04-14T18:03:27.590Z,20.98
2023-04-14T18:05:55.695Z,20.81
2023-04-14T18:08:23.552Z,21.10
2023-04-14T18:10:51.292Z,20.82
2023-04-14T18:13:19.369Z,21.25
2023-04-14T18:15:49.658Z,20.85
2023-04-14T18:18:17.919Z,21.14
2023-04-14T18:20:49.032Z,21.22
2023-04-14T18:23:16.699Z,21.21
2023-04-14T18:28:15.054Z,21.05
2023-04-14T18:30:43.864Z,20.88
2023-04-14T18:33:11.612Z,20.99
2023-04-14T18:35:39.501Z,20.81
2023-04-14T18:38:07.650Z,21.11
2023-04-14T18:40:38.494Z,21.21
2023-04-14T18:43:06.057Z,21.14
2023-04-14T18:45:33.888Z,21.28
2023-04-14T18:48:01.888Z,21.02
2023-04-14T18:50:29.694Z,21.35
2023-04-14T18:52:57.988Z,21.32
2023-04-14T18:55:25.752Z,21.03
2023-04-14T18:57:56.723Z,21.05
2023-04-14T19:00:25.346Z,21.11
2023-04-14T19:02:53.591Z,21.05
2023-04-14T19:05:21.909Z,20.88
2023-04-14T19:07:49.714Z,21.21
2023-04-14T19:10:18.390Z,20.99
2023-04-14T19:12:46.428Z,21.23
2023-04-14T19:15:14.532Z,21.11
2023-04-14T19:17:42.224Z,21.19
2023-04-14T19:20:10.488Z,21.28
2023-04-14T19:22:38.972Z,21.30
2023-04-14T19:25:07.263Z,21.19
2023-04-14T19:27:36.268Z,21.14
2023-04-14T19:30:05.368Z,21.10
2023-04-14T19:32:36.285Z,21.23
2023-04-14T19:35:06.667Z,21.22
2023-04-14T19:37:35.048Z,21.34
2023-04-14T19:40:08.297Z,21.32
2023-04-14T19:42:35.884Z,21.13
2023-04-14T19:45:03.815Z,20.91
2023-04-14T19:47:32.246Z,21.09
2023-04-14T19:50:00.583Z,21.25
2023-04-14T19:52:28.450Z,21.03
2023-04-14T19:54:57.372Z,20.89
2023-04-14T19:57:25.190Z,20.91
2023-04-14T19:59:52.798Z,20.91
2023-04-14T20:02:20.758Z,20.77
2023-04-14T20:04:57.522Z,21.22
2023-04-14T20:07:26.432Z,21.07
2023-04-14T20:09:55.009Z,21.20
2023-04-14T20:12:23.216Z,20.97
2023-04-14T20:14:54.122Z,21.24
2023-04-14T20:17:23.470Z,21.21
2023-04-14T20:19:51.440Z,21.17
2023-04-14T20:22:19.910Z,21.33
2023-04-14T20:24:47.805Z,21.34
2023-04-14T20:27:15.623Z,21.32
2023-04-14T20:29:43.565Z,21.22
2023-04-14T20:32:11.728Z,20.99
2023-04-14T20:34:39.695Z,21.32
2023-04-14T20:37:07.498Z,21.33
2023-04-14T20:39:35.310Z,21.33
2023-04-14T20:42:03.102Z,21.32
2023-04-14T20:44:33.048Z,21.32
2023-04-14T20:47:01.074Z,21.18
2023-04-14T20:49:29.710Z,21.33
2023-04-14T20:51:58.618Z,21.22
2023-04-14T20:54:27.998Z,21.27
2023-04-14T20:56:58.164Z,21.19
2023-04-14T20:59:26.454Z,21.32
2023-04-14T21:01:54.335Z,21.32
2023-04-14T21:04:22.587Z,21.09
2023-04-14T21:06:50.625Z,20.94
2023-04-14T21:09:19.488Z,21.32
2023-04-14T21:11:47.247Z,21.31
2023-04-14T21:15:40.283Z,21.22
2023-04-14T21:17:02.921Z,21.28
2023-04-14T21:19:31.274Z,21.13
2023-04-14T21:21:59.138Z,21.22
2023-04-14T21:24:27.588Z,21.04
2023-04-14T21:26:55.428Z,21.22
2023-04-14T21:29:23.617Z,21.16
2023-04-14T21:31:51.465Z,21.18
2023-04-14T21:34:19.522Z,21.16
2023-04-14T21:36:47.618Z,21.26
2023-04-14T21:39:15.510Z,21.15
2023-04-14T21:41:43.276Z,20.91
2023-04-14T21:44:11.441Z,21.01
2023-04-14T21:46:39.344Z,21.18
2023-04-14T21:49:07.448Z,21.03
2023-04-14T21:51:35.212Z,21.00
2023-04-14T21:54:03.253Z,20.86
2023-04-14T21:56:30.885Z,20.97
2023-04-14T21:58:58.698Z,20.57
2023-04-14T22:01:27.580Z,21.05
2023-04-14T22:03:56.158Z,21.04
2023-04-14T22:06:25.235Z,21.10
2023-04-14T22:08:52.806Z,20.77
2023-04-14T22:11:47.509Z,21.02
2023-04-14T22:14:15.572Z,20.98
2023-04-14T22:16:44.979Z,21.03
2023-04-14T22:19:12.753Z,20.67
2023-04-14T22:21:40.610Z,20.35
2023-04-14T22:24:08.997Z,21.05
2023-04-14T22:26:36.966Z,20.97
2023-04-14T22:29:04.963Z,21.01
2023-04-14T22:31:32.981Z,20.98
2023-04-14T22:34:01.319Z,20.89
2023-04-14T22:36:29.275Z,20.94
2023-04-14T22:38:57.196Z,20.82
2023-04-14T22:41:25.075Z,20.84
2023-04-14T22:43:53.009Z,20.77
2023-04-14T22:46:20.800Z,20.27
2023-04-14T22:48:48.949Z,20.68
2023-04-14T22:51:17.816Z,20.61
2023-04-14T22:53:45.791Z,20.50
2023-04-14T22:56:14.846Z,20.73
2023-04-14T22:58:42.789Z,20.46
2023-04-14T23:01:21.356Z,20.72
2023-04-14T23:03:52.844Z,20.79
2023-04-14T23:06:21.570Z,20.45
2023-04-14T23:08:50.565Z,20.72
2023-04-14T23:11:20.954Z,20.49
2023-04-14T23:13:50.072Z,20.75
2023-04-14T23:16:20.204Z,20.77
2023-04-14T23:18:52.716Z,20.52
2023-04-14T23:21:25.097Z,20.73
2023-04-14T23:23:52.912Z,20.72
2023-04-14T23:26:22.073Z,20.70
2023-04-14T23:28:49.904Z,20.73
2023-04-14T23:31:18.157Z,20.39
2023-04-14T23:33:48.700Z,20.55
2023-04-14T23:36:16.883Z,20.62
2023-04-14T23:38:45.219Z,20.67
2023-04-14T23:41:13.293Z,20.53
2023-04-14T23:43:41.293Z,20.52
2023-04-14T23:46:09.069Z,20.45
2023-04-14T23:48:36.831Z,20.37
2023-04-14T23:51:18.558Z,20.68
2023-04-14T23:53:49.929Z,20.50
2023-04-14T23:56:17.820Z,20.11
2023-04-14T23:58:45.742Z,20.35
